Time;durP1;ratioP1;P1;durP2;ratioP2;P2;SDS_P1;SDS_P2;PMS_P1;PMS_P2;Temp;Humidity;BMP_temperature;BMP_pressure;BME280_temperature;BME280_humidity;BME280_pressure;Samples;Min_cycle;Max_cycle;Signal;HPM_P1;HPM_P2
2022/02/12 00:00:41;;;;;;;55.35;34.28;;;;;;;7.25;79.96;100943.25;5058824;28;20439;-76
2022/02/12 00:03:07;;;;;;;56.08;30.77;;;;;;;7.27;79.74;100949.25;5058130;28;20021;-75
2022/02/12 00:05:33;;;;;;;47.95;28.35;;;;;;;7.20;79.18;100937.84;5053979;28;20032;-75
2022/02/12 00:08:02;;;;;;;50.50;26.85;;;;;;;7.14;78.43;100938.31;5053018;28;20039;-76
2022/02/12 00:10:29;;;;;;;35.60;21.65;;;;;;;7.00;77.05;100935.66;5054550;28;20086;-76
2022/02/12 00:12:55;;;;;;;44.55;23.90;;;;;;;7.07;78.01;100942.34;5053298;28;20029;-75
2022/02/12 00:15:22;;;;;;;37.28;24.33;;;;;;;7.14;77.49;100943.84;5053851;28;20048;-75
2022/02/12 00:17:48;;;;;;;43.65;25.48;;;;;;;7.05;77.41;100930.00;5053289;28;20219;-76
2022/02/12 00:20:15;;;;;;;47.90;26.98;;;;;;;7.13;77.22;100936.69;5053118;28;20059;-75
2022/02/12 00:22:43;;;;;;;40.97;26.60;;;;;;;6.97;77.17;100928.81;5052914;28;20460;-76
2022/02/12 00:25:12;;;;;;;39.00;24.15;;;;;;;7.01;77.09;100927.03;5053434;28;20263;-76
2022/02/12 00:27:38;;;;;;;40.85;25.45;;;;;;;7.02;77.96;100925.91;5053430;28;20391;-75
2022/02/12 00:30:05;;;;;;;45.30;24.60;;;;;;;7.01;77.67;100918.75;5052875;28;20116;-76
2022/02/12 00:32:33;;;;;;;37.58;22.20;;;;;;;7.09;76.85;100919.91;5053284;28;20044;-75
2022/02/12 00:35:01;;;;;;;35.92;21.42;;;;;;;6.99;76.95;100911.91;5053091;28;20021;-75
2022/02/12 00:37:29;;;;;;;32.70;19.92;;;;;;;7.02;76.48;100908.47;5053194;28;20032;-76
2022/02/12 00:39:55;;;;;;;34.97;18.50;;;;;;;6.93;76.99;100911.25;5052551;28;20052;-76
2022/02/12 00:42:22;;;;;;;34.47;18.55;;;;;;;6.86;77.71;100902.56;5053911;28;20045;-76
2022/02/12 00:44:48;;;;;;;40.13;18.52;;;;;;;6.91;78.34;100918.22;5053227;28;20369;-75
2022/02/12 00:47:14;;;;;;;36.70;20.92;;;;;;;6.85;78.58;100912.00;5052877;28;20119;-76
2022/02/12 00:49:39;;;;;;;26.67;17.58;;;;;;;6.91;79.02;100913.50;5053026;28;20033;-75
2022/02/12 00:52:08;;;;;;;30.38;19.10;;;;;;;6.98;78.78;100913.06;5052713;28;20135;-75
2022/02/12 00:54:34;;;;;;;30.88;18.83;;;;;;;6.99;79.13;100915.50;5053302;28;20071;-75
2022/02/12 00:57:00;;;;;;;36.38;19.10;;;;;;;7.03;78.52;100910.09;5052522;28;20440;-75
2022/02/12 00:59:29;;;;;;;23.88;17.35;;;;;;;7.04;78.95;100911.75;5053003;28;20029;-75
2022/02/12 01:01:54;;;;;;;31.17;18.20;;;;;;;6.98;78.87;100913.06;5052828;28;20033;-75
2022/02/12 01:04:20;;;;;;;30.83;19.05;;;;;;;6.90;78.67;100900.81;5052891;28;20039;-75
2022/02/12 01:06:46;;;;;;;36.53;21.65;;;;;;;6.97;78.91;100894.78;5053102;28;20028;-76
2022/02/12 01:09:14;;;;;;;36.50;20.17;;;;;;;7.04;77.48;100904.28;5053310;28;20021;-75
2022/02/12 01:11:43;;;;;;;35.85;19.33;;;;;;;6.89;78.03;100903.91;5056326;28;20071;-75
2022/02/12 01:14:10;;;;;;;31.63;19.40;;;;;;;6.95;78.25;100899.84;5057213;28;20472;-76
2022/02/12 01:16:35;;;;;;;39.05;18.88;;;;;;;6.93;78.31;100900.19;5057032;28;20029;-75
2022/02/12 01:19:03;;;;;;;36.78;18.67;;;;;;;6.87;78.84;100900.63;5040955;28;20075;-76
2022/02/12 01:21:32;;;;;;;32.55;19.10;;;;;;;6.81;78.57;100891.66;5056767;28;20521;-76
2022/02/12 01:23:58;;;;;;;29.17;19.90;;;;;;;6.82;78.13;100893.31;5056400;28;20423;-76
2022/02/12 01:26:23;;;;;;;34.80;19.33;;;;;;;6.82;78.50;100894.13;5057039;28;20131;-75
2022/02/12 01:28:49;;;;;;;35.45;19.17;;;;;;;6.79;79.10;100888.41;5057293;28;20036;-76
2022/02/12 01:31:19;;;;;;;35.58;17.60;;;;;;;6.79;78.58;100891.16;5056994;28;20468;-75
2022/02/12 01:33:45;;;;;;;28.83;17.25;;;;;;;6.79;78.20;100880.91;5056766;28;20033;-75
2022/02/12 01:36:10;;;;;;;29.85;18.50;;;;;;;6.72;79.09;100877.00;5057206;28;20036;-76
2022/02/12 01:38:38;;;;;;;30.40;18.15;;;;;;;6.70;79.67;100873.72;5056754;28;20067;-75
2022/02/12 01:41:04;;;;;;;28.58;18.95;;;;;;;6.70;79.74;100880.06;5056605;28;20029;-76
2022/02/12 01:43:32;;;;;;;34.78;19.00;;;;;;;6.74;79.69;100875.53;5056764;28;20071;-75
2022/02/12 01:45:57;;;;;;;35.33;19.10;;;;;;;6.80;80.18;100884.50;5057306;28;20360;-76
2022/02/12 01:48:25;;;;;;;29.42;17.70;;;;;;;6.82;79.32;100882.25;5056594;28;20036;-75
2022/02/12 01:50:51;;;;;;;31.63;19.00;;;;;;;6.75;79.26;100865.28;5056996;28;20064;-76
2022/02/12 01:53:21;;;;;;;33.67;18.10;;;;;;;6.73;79.18;100871.13;5057385;28;20044;-75
2022/02/12 01:55:46;;;;;;;36.30;18.48;;;;;;;6.75;80.00;100868.84;5056995;28;20033;-75
2022/02/12 01:58:14;;;;;;;29.58;17.88;;;;;;;6.71;79.56;100865.13;5057370;28;20025;-76
2022/02/12 02:00:41;;;;;;;35.13;21.92;;;;;;;6.67;80.75;100858.59;5056623;28;20028;-75
2022/02/12 02:03:09;;;;;;;34.70;19.42;;;;;;;6.60;80.76;100855.47;5057265;28;20033;-76
2022/02/12 02:05:35;;;;;;;29.45;18.77;;;;;;;6.63;81.68;100867.84;5056845;28;20055;-75
2022/02/12 02:08:03;;;;;;;29.00;18.13;;;;;;;6.60;81.97;100863.75;5056640;28;20021;-76
2022/02/12 02:10:29;;;;;;;34.55;19.08;;;;;;;6.58;81.56;100874.34;5056911;28;20021;-75
2022/02/12 02:12:55;;;;;;;30.70;19.95;;;;;;;6.64;82.34;100875.81;5057454;28;20056;-76
2022/02/12 02:15:20;;;;;;;36.13;21.27;;;;;;;6.66;81.86;100864.44;5057049;28;20364;-76
2022/02/12 02:17:46;;;;;;;31.27;19.77;;;;;;;6.63;81.60;100868.66;5057469;28;20095;-76
2022/02/12 02:20:11;;;;;;;30.00;18.80;;;;;;;6.67;82.51;100875.19;5057002;28;20383;-76
2022/02/12 02:22:49;;;;;;;34.78;20.98;;;;;;;6.71;81.79;100869.81;5055858;28;20063;-76
2022/02/12 02:25:15;;;;;;;31.48;20.20;;;;;;;6.58;81.48;100860.50;5057249;28;20384;-76
2022/02/12 02:27:41;;;;;;;35.08;21.27;;;;;;;6.62;81.67;100864.28;5056588;28;20029;-75
2022/02/12 02:30:12;;;;;;;40.15;20.42;;;;;;;6.51;81.92;100860.16;5056955;28;20021;-75
2022/02/12 02:32:39;;;;;;;37.25;21.00;;;;;;;6.53;82.93;100863.41;5057653;28;20036;-76
2022/02/12 02:35:06;;;;;;;35.03;19.83;;;;;;;6.47;83.48;100861.94;5057369;28;20056;-76
2022/02/12 02:37:33;;;;;;;33.10;18.23;;;;;;;6.51;83.20;100860.16;5057573;28;20456;-76
2022/02/12 02:39:59;;;;;;;36.58;22.25;;;;;;;6.55;83.89;100859.22;5057614;28;20029;-76
2022/02/12 02:42:24;;;;;;;40.28;23.38;;;;;;;6.53;84.14;100863.41;5057696;28;20360;-75
2022/02/12 02:44:50;;;;;;;33.17;20.15;;;;;;;6.58;84.39;100863.28;5057582;28;20032;-76
2022/02/12 02:47:36;;;;;;;33.42;21.27;;;;;;;6.58;85.44;100863.28;5058717;28;20056;-76
2022/02/12 02:50:03;;;;;;;34.75;20.85;;;;;;;6.62;85.79;100850.44;5059222;28;20468;-76
2022/02/12 02:58:00;;;;;;;32.63;20.13;;;;;;;6.66;86.29;100850.59;5056804;28;20044;-76
2022/02/12 03:00:28;;;;;;;31.70;19.42;;;;;;;6.68;86.05;100859.41;5054879;28;20036;-76
2022/02/12 03:02:54;;;;;;;30.25;18.98;;;;;;;6.63;85.25;100841.00;5055040;28;20025;-76
2022/02/12 03:05:20;;;;;;;28.00;15.57;;;;;;;6.68;85.74;100851.13;5054892;28;20029;-76
2022/02/12 03:07:45;;;;;;;25.77;15.75;;;;;;;6.75;84.94;100849.50;5054771;28;20043;-76
2022/02/12 03:10:13;;;;;;;26.70;17.15;;;;;;;6.62;84.95;100855.16;5054660;28;20028;-76
2022/02/12 03:12:41;;;;;;;43.78;24.85;;;;;;;6.69;85.61;100847.22;5054869;28;20075;-76
2022/02/12 03:15:07;;;;;;;39.90;22.58;;;;;;;6.63;86.03;100846.53;5055062;28;20087;-76
2022/02/12 03:17:33;;;;;;;26.95;18.00;;;;;;;6.57;86.29;100845.06;5054810;28;20029;-76
2022/02/12 03:19:58;;;;;;;45.35;27.65;;;;;;;6.66;86.75;100848.69;5054910;28;20052;-76
2022/02/12 03:22:24;;;;;;;63.97;35.17;;;;;;;6.63;86.32;100846.53;5054554;28;20559;-76
2022/02/12 03:24:52;;;;;;;41.75;22.13;;;;;;;6.51;86.17;100851.88;5054800;28;20032;-76
2022/02/12 03:27:17;;;;;;;43.78;26.40;;;;;;;6.53;85.96;100852.34;5054694;28;20029;-76
2022/02/12 03:29:43;;;;;;;109.57;67.00;;;;;;;6.53;85.15;100860.66;5054773;28;20031;-76
2022/02/12 03:32:09;;;;;;;87.70;58.00;;;;;;;6.48;84.74;100853.31;5054707;28;20369;-76
2022/02/12 03:34:34;;;;;;;146.52;90.93;;;;;;;6.49;84.77;100859.66;5054417;28;20120;-76
2022/02/12 03:37:00;;;;;;;127.90;76.65;;;;;;;6.44;84.68;100862.56;5054531;28;20029;-76
2022/02/12 03:39:26;;;;;;;87.05;57.05;;;;;;;6.43;84.08;100864.50;5054878;28;20055;-76
2022/02/12 03:41:52;;;;;;;86.82;51.97;;;;;;;6.48;85.08;100866.31;5054468;28;20060;-76
2022/02/12 03:44:21;;;;;;;71.75;43.67;;;;;;;6.46;85.19;100857.53;5054396;28;20088;-76
2022/02/12 03:46:46;;;;;;;71.28;43.13;;;;;;;6.48;85.49;100860.78;5054381;28;20040;-76
2022/02/12 03:49:12;;;;;;;121.50;66.22;;;;;;;6.44;85.11;100859.78;5054808;28;20159;-76
2022/02/12 03:51:37;;;;;;;102.38;59.83;;;;;;;6.52;84.63;100861.78;5054202;28;20052;-76
2022/02/12 03:54:03;;;;;;;84.55;44.00;;;;;;;6.49;83.99;100865.19;5054099;28;20411;-76
2022/02/12 03:56:29;;;;;;;47.83;28.77;;;;;;;6.46;85.09;100858.34;5054407;28;20039;-76
2022/02/12 03:58:54;;;;;;;53.70;30.00;;;;;;;6.57;85.45;100864.41;5053751;28;20479;-76
2022/02/12 04:01:20;;;;;;;102.05;53.30;;;;;;;6.64;85.75;100850.94;5053494;28;20029;-76
2022/02/12 04:03:45;;;;;;;132.13;69.57;;;;;;;6.65;84.52;100852.56;5054288;28;20033;-76
2022/02/12 04:06:11;;;;;;;117.75;63.60;;;;;;;6.66;84.10;100845.91;5054655;28;20379;-76
2022/02/12 04:08:36;;;;;;;98.57;54.88;;;;;;;6.61;83.73;100851.59;5053752;28;20031;-76
2022/02/12 04:11:05;;;;;;;62.53;34.97;;;;;;;6.66;82.62;100856.13;5053463;28;20499;-76
2022/02/12 04:13:36;;;;;;;55.20;30.77;;;;;;;6.68;82.36;100854.69;5053532;28;20031;-76
2022/02/12 04:16:02;;;;;;;44.40;25.67;;;;;;;6.58;82.78;100854.97;5053969;28;20041;-76
2022/02/12 04:18:31;;;;;;;36.42;22.25;;;;;;;6.56;82.85;100852.53;5053784;28;20028;-76
2022/02/12 04:20:57;;;;;;;84.15;47.95;;;;;;;6.61;82.63;100854.34;5053813;28;20044;-76
2022/02/12 04:23:22;;;;;;;68.55;38.53;;;;;;;6.52;82.14;100850.72;5053640;28;20040;-76
2022/02/12 04:25:48;;;;;;;50.40;28.20;;;;;;;6.51;82.65;100846.34;5053830;28;20402;-76
2022/02/12 04:28:18;;;;;;;41.75;23.95;;;;;;;6.47;82.62;100854.44;5053531;28;20090;-76
2022/02/12 04:30:49;;;;;;;38.75;22.27;;;;;;;6.48;82.18;100858.03;5053737;28;20024;-76
2022/02/12 04:33:14;;;;;;;39.72;21.27;;;;;;;6.49;81.92;100856.88;5054102;28;20130;-76
2022/02/12 04:35:40;;;;;;;36.30;20.60;;;;;;;6.48;81.97;100858.03;5054679;28;20460;-76
2022/02/12 04:38:06;;;;;;;34.47;20.70;;;;;;;6.47;81.77;100859.97;5054232;28;20383;-76
2022/02/12 04:40:31;;;;;;;44.63;22.83;;;;;;;6.48;81.76;100847.78;5053751;28;20463;-76
2022/02/12 04:42:57;;;;;;;44.78;23.00;;;;;;;6.33;81.30;100831.63;5053637;28;20064;-76
2022/02/12 04:45:26;;;;;;;35.47;23.25;;;;;;;6.44;81.75;100860.59;5053107;28;20086;-76
2022/02/12 04:47:51;;;;;;;40.35;20.45;;;;;;;6.41;81.58;100857.69;5053825;28;20068;-76
2022/02/12 04:50:17;;;;;;;26.88;18.58;;;;;;;6.44;81.12;100855.06;5053857;28;20490;-76
2022/02/12 04:52:42;;;;;;;42.67;24.52;;;;;;;6.38;81.23;100845.28;5053687;28;20392;-76
2022/02/12 04:55:09;;;;;;;48.25;24.10;;;;;;;6.32;81.65;100851.28;5053565;28;20040;-76
2022/02/12 04:57:37;;;;;;;46.33;26.00;;;;;;;6.33;81.99;100853.72;5053845;28;20092;-76
2022/02/12 05:00:07;;;;;;;46.85;25.17;;;;;;;6.35;81.95;100856.19;5054415;28;20098;-76
2022/02/12 05:02:32;;;;;;;40.30;22.90;;;;;;;6.43;80.96;100853.44;5054064;28;20468;-76
2022/02/12 05:04:58;;;;;;;43.78;23.98;;;;;;;6.43;81.81;100852.63;5053942;28;20175;-76
2022/02/12 05:07:23;;;;;;;43.20;26.25;;;;;;;6.18;81.02;100827.34;5054063;28;20116;-76
2022/02/12 05:09:51;;;;;;;40.22;20.17;;;;;;;6.47;80.41;100856.41;5053880;28;20064;-76
2022/02/12 05:12:17;;;;;;;26.92;15.70;;;;;;;6.43;80.34;100858.97;5054026;28;20471;-76
2022/02/12 05:14:42;;;;;;;27.95;16.00;;;;;;;6.47;79.78;100850.88;5053815;28;20158;-76
2022/02/12 05:17:08;;;;;;;25.17;15.60;;;;;;;6.47;80.22;100853.63;5054974;28;20028;-76
2022/02/12 05:19:36;;;;;;;30.50;15.23;;;;;;;6.44;80.26;100854.25;5054592;28;20033;-76
2022/02/12 05:22:01;;;;;;;29.80;17.63;;;;;;;6.43;80.99;100864.50;5053999;28;20128;-76
2022/02/12 05:24:27;;;;;;;25.35;15.50;;;;;;;6.28;79.72;100854.72;5054264;28;20114;-76
2022/02/12 05:26:56;;;;;;;26.90;16.27;;;;;;;6.08;80.72;100835.91;5038149;28;20033;-76
2022/02/12 05:29:21;;;;;;;29.08;17.25;;;;;;;6.28;80.22;100860.22;5054947;28;20538;-76
2022/02/12 05:31:50;;;;;;;34.45;17.55;;;;;;;6.25;80.26;100869.16;5054647;28;20025;-76
2022/02/12 05:34:17;;;;;;;34.63;18.48;;;;;;;6.20;80.10;100871.22;5054630;28;20033;-76
2022/02/12 05:36:43;;;;;;;25.52;15.57;;;;;;;6.23;80.05;100863.13;5056852;28;20029;-76
2022/02/12 05:39:09;;;;;;;29.48;16.60;;;;;;;6.23;79.01;100873.34;5056028;28;20040;-76
2022/02/12 05:41:38;;;;;;;32.92;15.88;;;;;;;6.25;78.43;100871.09;5057449;28;20383;-76
2022/02/12 05:44:07;;;;;;;29.50;14.98;;;;;;;6.20;78.55;100877.56;5057269;28;20063;-76
2022/02/12 05:46:36;;;;;;;30.08;19.10;;;;;;;6.18;78.50;100871.56;5053852;28;20033;-76
2022/02/12 05:49:04;;;;;;;22.90;15.23;;;;;;;6.36;78.13;100869.69;5051903;28;20063;-76
2022/02/12 05:51:35;;;;;;;23.52;13.85;;;;;;;6.30;78.30;100879.25;5052403;28;20033;-76
2022/02/12 05:54:03;;;;;;;24.35;11.80;;;;;;;6.37;77.87;100881.56;5051915;28;20025;-76
2022/02/12 05:56:31;;;;;;;25.77;14.07;;;;;;;6.40;77.13;100880.94;5053203;28;20033;-76
2022/02/12 05:59:02;;;;;;;25.00;14.13;;;;;;;6.36;76.61;100885.47;5055424;28;20033;-76
2022/02/12 06:01:30;;;;;;;23.15;13.93;;;;;;;6.58;75.21;100882.63;5056037;28;20084;-76
2022/02/12 06:04:00;;;;;;;21.67;14.63;;;;;;;6.48;75.01;100880.16;5055534;28;20112;-76
2022/02/12 06:06:28;;;;;;;27.92;16.45;;;;;;;6.53;76.29;100880.00;5055226;28;20037;-76
2022/02/12 06:08:54;;;;;;;29.42;17.13;;;;;;;6.63;75.70;100892.75;5055302;28;20029;-76
2022/02/12 06:11:22;;;;;;;34.67;17.52;;;;;;;6.66;75.57;100890.16;5056466;28;20493;-76
2022/02/12 06:13:52;;;;;;;29.20;16.50;;;;;;;6.96;72.74;100890.41;5055619;28;20028;-76
2022/02/12 06:16:21;;;;;;;28.63;16.27;;;;;;;7.13;73.20;100893.22;5055209;28;20029;-76
2022/02/12 06:18:50;;;;;;;72.22;35.92;;;;;;;7.32;72.01;100895.69;5055914;28;20043;-76
2022/02/12 06:21:16;;;;;;;78.88;41.53;;;;;;;7.81;71.00;100901.91;5056536;28;20029;-76
2022/02/12 06:23:44;;;;;;;52.28;31.48;;;;;;;8.35;69.44;100900.34;5054796;28;20075;-76
2022/02/12 06:26:11;;;;;;;39.03;22.77;;;;;;;8.85;66.25;100908.03;5055280;28;20475;-76
2022/02/12 06:28:37;;;;;;;29.40;16.73;;;;;;;9.11;65.71;100912.66;5055405;28;20487;-76
2022/02/12 06:31:03;;;;;;;21.58;14.00;;;;;;;9.15;65.50;100916.34;5054650;28;20033;-76
2022/02/12 06:33:30;;;;;;;24.15;13.73;;;;;;;9.16;65.38;100921.59;5055650;28;20040;-76
2022/02/12 06:35:56;;;;;;;25.45;14.48;;;;;;;9.18;65.75;100921.25;5055112;28;20502;-76
2022/02/12 06:38:22;;;;;;;24.38;15.00;;;;;;;9.20;64.41;100921.72;5055211;28;20094;-76
2022/02/12 06:40:50;;;;;;;43.30;21.60;;;;;;;9.41;63.98;100918.97;5054961;28;20029;-76
2022/02/12 06:43:16;;;;;;;37.42;20.10;;;;;;;9.90;62.92;100922.84;5055039;28;20029;-76
2022/02/12 06:45:42;;;;;;;29.13;18.95;;;;;;;10.37;60.98;100922.59;5055313;28;20025;-76
2022/02/12 06:48:08;;;;;;;27.13;17.80;;;;;;;10.95;59.50;100928.13;5056511;28;20108;-76
2022/02/12 06:50:33;;;;;;;31.02;17.30;;;;;;;11.91;56.81;100928.38;5054603;28;20118;-76
2022/02/12 06:52:59;;;;;;;33.08;18.13;;;;;;;12.65;55.19;100923.25;5055047;28;20072;-76
2022/02/12 06:55:27;;;;;;;31.30;18.70;;;;;;;13.44;53.38;100923.22;5055490;28;20021;-76
2022/02/12 06:57:54;;;;;;;27.95;17.27;;;;;;;14.00;50.70;100925.63;5057124;28;20033;-76
2022/02/12 07:00:23;;;;;;;35.83;19.75;;;;;;;14.14;49.03;100923.13;5054975;28;20025;-75
2022/02/12 07:02:51;;;;;;;41.03;23.60;;;;;;;13.72;48.33;100936.22;5054405;28;20038;-76
2022/02/12 07:05:17;;;;;;;35.92;19.88;;;;;;;14.56;47.07;100936.38;5055574;28;20025;-76
2022/02/12 07:07:45;;;;;;;24.50;15.13;;;;;;;15.02;47.08;100942.00;5055000;28;20382;-76
2022/02/12 07:10:11;;;;;;;23.08;14.77;;;;;;;15.70;45.53;100946.66;5054663;28;20033;-76
2022/02/12 07:12:36;;;;;;;20.90;13.65;;;;;;;16.17;44.90;100950.88;5055657;28;20060;-76
2022/02/12 07:15:02;;;;;;;25.67;15.18;;;;;;;16.55;43.41;100946.09;5054261;28;20515;-76
2022/02/12 07:17:28;;;;;;;28.60;15.35;;;;;;;17.07;41.94;100947.03;5053916;28;20041;-76
2022/02/12 07:19:56;;;;;;;23.52;16.83;;;;;;;17.51;42.15;100948.97;5053642;28;20029;-76
2022/02/12 07:22:26;;;;;;;25.25;15.43;;;;;;;17.68;40.58;100937.00;5053114;28;20049;-77
2022/02/12 07:24:52;;;;;;;27.27;15.73;;;;;;;17.84;39.69;100962.06;5053416;28;20033;-76
2022/02/12 07:27:18;;;;;;;23.38;14.55;;;;;;;18.49;39.46;100963.16;5053455;28;20028;-76
2022/02/12 07:29:44;;;;;;;24.55;14.90;;;;;;;18.80;39.12;100965.28;5053326;28;20083;-76
2022/02/12 07:34:54;;;;;;;31.13;17.02;;;;;;;18.79;36.83;100974.91;5054965;28;20035;-76
2022/02/12 07:37:20;;;;;;;25.63;16.42;;;;;;;18.88;38.82;100974.53;5053125;28;20446;-76
2022/02/12 07:39:46;;;;;;;23.65;14.77;;;;;;;18.99;38.01;100977.38;5053225;28;20032;-76
2022/02/12 07:42:11;;;;;;;27.38;15.75;;;;;;;19.17;39.09;100977.38;5053702;28;20037;-76
2022/02/12 07:44:40;;;;;;;22.63;14.57;;;;;;;18.87;38.18;100977.78;5053311;28;20471;-74
2022/02/12 07:47:06;;;;;;;22.92;14.60;;;;;;;19.19;37.51;100977.81;5053872;28;20033;-76
2022/02/12 07:49:31;;;;;;;23.23;15.52;;;;;;;19.57;36.36;100976.16;5053311;28;20052;-76
2022/02/12 07:51:57;;;;;;;21.88;12.82;;;;;;;19.92;36.08;100974.50;5052987;28;20456;-76
2022/02/12 07:54:22;;;;;;;20.13;13.55;;;;;;;19.72;35.39;100966.50;5053101;28;20032;-76
2022/02/12 07:56:53;;;;;;;17.23;10.73;;;;;;;20.01;35.07;100972.06;5052756;28;20457;-76
2022/02/12 07:59:23;;;;;;;17.13;10.45;;;;;;;20.21;33.73;100976.03;5052969;28;20036;-74
2022/02/12 08:01:49;;;;;;;21.38;10.30;;;;;;;20.21;33.18;100976.03;5052712;28;20040;-75
2022/02/12 08:04:17;;;;;;;17.30;10.35;;;;;;;20.40;33.34;100984.00;5052760;28;20025;-74
2022/02/12 08:09:27;;;;;;;18.77;10.90;;;;;;;20.34;32.25;100993.31;5054368;28;20039;-76
2022/02/12 08:12:01;;;;;;;14.20;8.95;;;;;;;20.46;31.79;100992.91;5053114;28;20040;-74
2022/02/12 08:14:27;;;;;;;19.00;8.50;;;;;;;20.92;31.81;100995.44;5052357;28;20029;-74
2022/02/12 08:16:56;;;;;;;12.52;9.30;;;;;;;21.02;32.21;100988.09;5052753;28;20032;-74
2022/02/12 08:19:22;;;;;;;11.73;8.27;;;;;;;20.78;31.50;100995.56;5052479;28;20427;-74
2022/02/12 08:21:48;;;;;;;10.77;7.57;;;;;;;21.18;31.41;101001.72;5053706;28;20035;-74
2022/02/12 08:24:16;;;;;;;11.10;8.75;;;;;;;21.29;30.68;100999.63;5052143;28;20120;-74
2022/02/12 08:26:44;;;;;;;12.25;9.23;;;;;;;21.32;31.01;100995.19;5051703;28;20091;-76
2022/02/12 08:29:12;;;;;;;16.65;12.23;;;;;;;19.86;32.80;100999.53;5052210;28;20036;-76
2022/02/12 08:31:38;;;;;;;17.88;10.90;;;;;;;19.94;33.92;101001.13;5052678;28;20356;-79
2022/02/12 08:34:03;;;;;;;18.10;10.30;;;;;;;20.72;32.65;101002.88;5052397;28;20120;-77
2022/02/12 08:36:29;;;;;;;21.70;11.05;;;;;;;20.64;31.95;101004.09;5052391;28;20478;-77
2022/02/12 08:38:58;;;;;;;42.38;23.88;;;;;;;20.02;33.04;101007.56;5052184;28;20427;-77
2022/02/12 08:41:24;;;;;;;27.85;19.50;;;;;;;19.65;32.59;101006.00;5052262;28;20115;-77
2022/02/12 08:43:52;;;;;;;19.70;13.60;;;;;;;19.97;31.82;100996.66;5052351;28;20117;-77
2022/02/12 08:46:18;;;;;;;17.52;8.95;;;;;;;20.28;31.98;101020.38;5052357;28;20115;-77
2022/02/12 08:48:43;;;;;;;15.02;9.75;;;;;;;20.57;31.42;101009.81;5051792;28;20116;-76
2022/02/12 08:51:12;;;;;;;15.70;9.63;;;;;;;21.14;31.38;101020.75;5053561;28;20067;-76
2022/02/12 08:53:37;;;;;;;13.65;9.60;;;;;;;20.86;31.00;101019.72;5051945;28;20025;-76
2022/02/12 08:56:03;;;;;;;13.25;9.15;;;;;;;21.23;30.55;101026.75;5051920;28;20025;-74
2022/02/12 08:58:31;;;;;;;14.00;8.10;;;;;;;20.96;30.81;101025.75;5051796;28;20116;-76
2022/02/12 09:00:57;;;;;;;10.10;7.78;;;;;;;20.46;31.15;101026.00;5051985;28;20053;-76
2022/02/12 09:03:27;;;;;;;13.45;9.95;;;;;;;21.29;30.57;101033.59;5052385;28;20063;-76
2022/02/12 09:05:57;;;;;;;18.88;13.57;;;;;;;21.84;29.88;101027.09;5051624;28;20131;-76
2022/02/12 09:08:25;;;;;;;11.27;8.85;;;;;;;22.22;29.85;101035.63;5052855;28;20400;-76
2022/02/12 09:10:53;;;;;;;10.15;7.32;;;;;;;22.32;27.83;101033.84;5051783;28;20087;-76
2022/02/12 09:13:19;;;;;;;9.13;6.75;;;;;;;22.48;28.59;101029.22;5051984;28;20079;-77
2022/02/12 09:15:48;;;;;;;9.95;8.05;;;;;;;22.08;29.36;101044.22;5051939;28;20116;-76
2022/02/12 09:18:13;;;;;;;13.07;8.38;;;;;;;22.42;28.47;101036.56;5052264;28;20037;-76
2022/02/12 09:20:44;;;;;;;9.95;7.53;;;;;;;21.62;28.90;101017.16;5051827;28;20120;-76
2022/02/12 09:23:12;;;;;;;10.18;8.15;;;;;;;22.20;29.38;101036.00;5051414;28;20044;-76
2022/02/12 09:25:38;;;;;;;15.65;10.15;;;;;;;22.48;29.17;101032.06;5052727;28;20071;-76
2022/02/12 09:28:04;;;;;;;15.57;8.95;;;;;;;22.56;28.97;101032.75;5052027;28;20032;-76
2022/02/12 09:30:29;;;;;;;15.25;8.50;;;;;;;22.80;28.62;101039.34;5051721;28;20387;-76
2022/02/12 09:32:57;;;;;;;12.63;7.28;;;;;;;22.85;28.36;101035.19;5055208;28;20071;-76
2022/02/12 09:35:26;;;;;;;11.95;7.82;;;;;;;23.07;28.03;101047.09;5055728;28;20468;-76
2022/02/12 09:37:52;;;;;;;9.85;6.65;;;;;;;22.69;28.15;101035.81;5055780;28;20036;-76
2022/02/12 09:40:18;;;;;;;22.95;10.55;;;;;;;22.18;28.29;101049.00;5055395;28;20394;-76
2022/02/12 09:42:47;;;;;;;12.48;9.07;;;;;;;20.99;30.21;101047.56;5055984;28;20043;-77
2022/02/12 09:45:15;;;;;;;25.25;14.30;;;;;;;20.60;31.16;101042.91;5055393;28;20126;-77
2022/02/12 09:47:47;;;;;;;13.68;8.50;;;;;;;20.38;31.30;101048.59;5055633;28;20036;-77
2022/02/12 09:50:14;;;;;;;10.80;8.05;;;;;;;19.92;32.08;101047.91;5055783;28;20056;-77
2022/02/12 09:52:51;;;;;;;21.08;11.68;;;;;;;20.45;31.25;101053.41;5055173;28;20029;-77
2022/02/12 09:55:17;;;;;;;16.02;8.70;;;;;;;20.25;31.97;101050.28;5057428;28;20360;-76
2022/02/12 09:57:42;;;;;;;13.10;7.85;;;;;;;20.47;30.70;101050.25;5055292;28;20029;-77
2022/02/12 10:00:19;;;;;;;9.75;7.60;;;;;;;20.34;31.90;101053.47;5055176;28;20032;-76
2022/02/12 10:02:47;;;;;;;16.35;10.43;;;;;;;20.47;31.44;101056.69;5056234;28;20029;-77
2022/02/12 10:05:27;;;;;;;17.55;11.70;;;;;;;21.12;30.92;101052.31;5054784;28;20037;-77
2022/02/12 10:08:15;;;;;;;31.92;24.90;;;;;;;20.90;31.17;101048.81;5055207;28;20052;-76
2022/02/12 10:10:43;;;;;;;15.43;9.82;;;;;;;21.17;30.28;101053.91;5054793;28;20024;-76
2022/02/12 10:13:13;;;;;;;10.75;7.85;;;;;;;21.82;29.50;101055.00;5054755;28;20060;-76
2022/02/12 10:15:43;;;;;;;10.70;8.43;;;;;;;21.14;30.56;101049.06;5055329;28;20051;-77
2022/02/12 10:18:10;;;;;;;13.60;8.32;;;;;;;21.23;30.74;101049.41;5055709;28;20036;-77
2022/02/12 10:20:40;;;;;;;10.45;7.50;;;;;;;21.82;29.77;101048.53;5054667;28;20028;-77
2022/02/12 10:23:06;;;;;;;13.85;8.75;;;;;;;21.78;30.14;101042.09;5054464;28;20045;-77
2022/02/12 10:25:36;;;;;;;12.30;8.82;;;;;;;21.59;30.67;101047.13;5055282;28;20028;-77
2022/02/12 10:28:03;;;;;;;11.85;8.50;;;;;;;21.79;30.65;101019.03;5055810;28;20040;-77
2022/02/12 10:30:30;;;;;;;10.77;7.65;;;;;;;21.57;30.60;101045.94;5054441;28;20440;-77
2022/02/12 10:32:58;;;;;;;14.38;8.50;;;;;;;21.77;30.42;101035.63;5054741;28;20091;-77
2022/02/12 10:35:29;;;;;;;14.00;9.25;;;;;;;21.77;29.74;101032.78;5054943;28;20064;-76
2022/02/12 10:38:02;;;;;;;9.35;8.10;;;;;;;22.39;28.97;101031.75;5055951;28;20081;-77
2022/02/12 10:40:33;;;;;;;13.90;8.88;;;;;;;21.71;29.62;101031.66;5055893;28;20028;-77
2022/02/12 10:42:59;;;;;;;15.02;8.00;;;;;;;21.95;29.39;101033.44;5053684;28;20040;-77
2022/02/12 10:45:29;;;;;;;10.70;8.13;;;;;;;21.55;29.28;101023.69;5055472;28;20495;-77
2022/02/12 10:47:57;;;;;;;10.38;6.90;;;;;;;21.84;29.88;101031.91;5054229;28;20044;-77
2022/02/12 10:50:26;;;;;;;18.73;9.85;;;;;;;21.39;31.17;101035.56;5053194;28;20036;-77
2022/02/12 10:53:00;;;;;;;16.27;8.88;;;;;;;21.08;31.79;101023.22;5054544;28;20472;-77
2022/02/12 10:55:31;;;;;;;15.98;10.98;;;;;;;20.31;33.11;101030.88;5055756;28;20025;-77
2022/02/12 10:58:03;;;;;;;11.82;9.00;;;;;;;19.78;34.50;101014.88;5053981;28;20571;-77
2022/02/12 11:00:31;;;;;;;18.63;9.73;;;;;;;20.08;33.69;101022.88;5053960;28;20082;-77
2022/02/12 11:03:00;;;;;;;13.30;9.23;;;;;;;19.35;34.66;101003.59;5054054;28;20082;-76
2022/02/12 11:05:27;;;;;;;15.77;10.95;;;;;;;19.12;34.88;101020.88;5053828;28;20072;-78
2022/02/12 11:07:53;;;;;;;13.23;9.60;;;;;;;18.93;35.25;101015.63;5053949;28;20472;-76
2022/02/12 11:10:20;;;;;;;17.63;10.43;;;;;;;19.05;35.48;101007.59;5053974;28;20025;-77
2022/02/12 11:12:51;;;;;;;21.67;9.90;;;;;;;19.02;34.90;101001.97;5053774;28;20028;-77
2022/02/12 11:15:17;;;;;;;13.65;9.65;;;;;;;18.71;34.96;100993.03;5053682;28;20029;-77
2022/02/12 11:17:45;;;;;;;17.80;9.73;;;;;;;18.21;36.04;100992.81;5053660;28;20032;-76
2022/02/12 11:20:14;;;;;;;13.27;9.75;;;;;;;18.62;35.40;100995.41;5053560;28;20087;-77
2022/02/12 11:22:41;;;;;;;11.38;8.75;;;;;;;18.96;34.70;100950.81;5053039;28;20087;-77
2022/02/12 11:25:52;;;;;;;10.73;8.15;;;;;;;19.63;33.16;100986.66;5053747;28;20040;-77
2022/02/12 11:28:18;;;;;;;14.07;8.52;;;;;;;19.67;33.51;100985.84;4976702;28;20030;-77